createdAt,value
2022-09-23T00:01:37.554Z,11.82
2022-09-23T00:04:41.477Z,10.00
2022-09-23T00:07:44.553Z,12.13
2022-09-23T00:10:47.637Z,9.75
2022-09-23T00:13:52.766Z,9.73
2022-09-23T00:16:55.608Z,8.60
2022-09-23T00:19:58.244Z,8.45
2022-09-23T00:23:01.419Z,8.02
2022-09-23T00:26:06.201Z,9.13
2022-09-23T00:29:09.035Z,9.93
2022-09-23T00:32:11.543Z,9.32
2022-09-23T00:35:14.296Z,8.00
2022-09-23T00:38:17.220Z,9.70
2022-09-23T00:41:21.334Z,8.23
2022-09-23T00:44:48.652Z,8.60
2022-09-23T00:47:54.967Z,9.65
2022-09-23T00:50:57.522Z,10.35
2022-09-23T00:54:02.166Z,9.75
2022-09-23T00:57:05.721Z,10.57
2022-09-23T01:00:09.197Z,10.60
2022-09-23T01:03:12.030Z,11.23
2022-09-23T01:06:14.934Z,10.30
2022-09-23T01:09:18.253Z,9.45
2022-09-23T01:12:21.452Z,9.50
2022-09-23T01:15:39.162Z,9.68
2022-09-23T01:18:50.680Z,10.35
2022-09-23T01:21:57.011Z,10.32
2022-09-23T01:25:11.604Z,13.43
2022-09-23T01:28:40.876Z,12.50
2022-09-23T01:31:57.717Z,8.57
2022-09-23T01:35:15.207Z,9.38
2022-09-23T01:38:40.327Z,10.57
2022-09-23T01:42:09.589Z,10.73
2022-09-23T01:45:19.490Z,9.57
2022-09-23T01:48:43.168Z,10.33
2022-09-23T01:51:50.998Z,10.13
2022-09-23T01:55:02.256Z,14.15
2022-09-23T01:58:14.674Z,10.13
2022-09-23T02:01:23.797Z,9.73
2022-09-23T02:04:47.195Z,9.07
2022-09-23T02:07:57.783Z,9.18
2022-09-23T02:11:06.541Z,9.75
2022-09-23T02:14:35.908Z,9.52
2022-09-23T02:17:49.634Z,11.43
2022-09-23T02:20:59.263Z,11.27
2022-09-23T02:24:19.524Z,10.63
2022-09-23T02:27:31.280Z,10.25
2022-09-23T02:30:45.237Z,9.00
2022-09-23T02:34:09.237Z,11.55
2022-09-23T02:37:27.317Z,9.82
2022-09-23T02:40:40.338Z,9.57
2022-09-23T02:43:51.943Z,13.73
2022-09-23T02:46:55.097Z,10.57
2022-09-23T02:49:57.893Z,13.50
2022-09-23T02:53:01.139Z,11.85
2022-09-23T02:56:15.536Z,11.10
2022-09-23T02:59:20.300Z,10.00
2022-09-23T03:02:49.272Z,9.43
2022-09-23T03:05:58.941Z,10.18
2022-09-23T03:09:27.860Z,13.57
2022-09-23T03:13:00.480Z,9.82
2022-09-23T03:16:22.500Z,10.38
2022-09-23T03:19:37.883Z,14.25
2022-09-23T03:22:46.909Z,9.82
2022-09-23T03:25:54.051Z,11.55
2022-09-23T03:28:58.731Z,11.05
2022-09-23T03:32:01.469Z,10.98
2022-09-23T03:35:05.886Z,11.57
2022-09-23T03:38:17.296Z,11.93
2022-09-23T03:41:28.998Z,10.60
2022-09-23T03:44:39.692Z,11.27
2022-09-23T03:47:43.847Z,8.75
2022-09-23T03:50:46.297Z,9.20
2022-09-23T03:53:49.396Z,10.85
2022-09-23T03:56:52.000Z,9.98
2022-09-23T03:59:55.067Z,10.15
2022-09-23T04:02:57.527Z,11.30
2022-09-23T04:06:00.903Z,10.32
2022-09-23T04:09:03.551Z,10.77
2022-09-23T04:12:06.923Z,9.73
2022-09-23T04:15:09.922Z,10.80
2022-09-23T04:18:12.603Z,11.48
2022-09-23T04:21:15.488Z,9.20
2022-09-23T04:24:18.758Z,9.75
2022-09-23T04:27:21.276Z,12.02
2022-09-23T04:30:24.000Z,8.68
2022-09-23T04:33:26.682Z,11.20
2022-09-23T04:36:30.376Z,10.95
2022-09-23T04:39:32.794Z,9.95
2022-09-23T04:42:35.463Z,12.90
2022-09-23T04:45:37.819Z,14.18
2022-09-23T04:48:44.069Z,10.48
2022-09-23T04:51:46.687Z,16.12
2022-09-23T04:54:49.409Z,12.95
2022-09-23T04:57:53.752Z,10.48
2022-09-23T05:01:01.729Z,13.90
2022-09-23T05:04:11.023Z,10.25
2022-09-23T05:07:14.008Z,9.88
2022-09-23T05:10:17.780Z,13.85
2022-09-23T05:13:20.453Z,12.20
2022-09-23T05:16:24.349Z,12.98
2022-09-23T05:19:27.198Z,9.60
2022-09-23T05:22:30.682Z,15.30
2022-09-23T05:25:38.097Z,13.32
2022-09-23T05:28:41.031Z,10.75
2022-09-23T05:31:43.908Z,11.80
2022-09-23T05:34:46.674Z,9.77
2022-09-23T05:37:49.426Z,13.13
2022-09-23T05:41:00.732Z,9.55
2022-09-23T05:44:03.741Z,10.55
2022-09-23T05:47:06.602Z,16.58
2022-09-23T05:50:10.004Z,13.13
2022-09-23T05:53:12.462Z,11.65
2022-09-23T05:56:18.090Z,11.38
2022-09-23T05:59:20.569Z,12.25
2022-09-23T06:02:23.633Z,10.98
2022-09-23T06:05:26.515Z,10.80
2022-09-23T06:08:29.119Z,11.45
2022-09-23T06:11:34.190Z,9.70
2022-09-23T06:14:37.041Z,9.07
2022-09-23T06:17:39.768Z,10.60
2022-09-23T06:20:42.268Z,12.27
2022-09-23T06:23:45.717Z,14.00
2022-09-23T06:26:48.358Z,11.82
2022-09-23T06:29:52.535Z,9.73
2022-09-23T06:32:57.309Z,12.05
2022-09-23T06:36:01.943Z,11.02
2022-09-23T06:39:04.860Z,13.52
2022-09-23T06:42:07.920Z,10.77
2022-09-23T06:45:13.035Z,8.27
2022-09-23T06:48:15.735Z,9.43
2022-09-23T06:51:21.733Z,9.38
2022-09-23T06:54:25.423Z,10.85
2022-09-23T06:57:32.863Z,9.00
2022-09-23T07:00:36.288Z,8.38
2022-09-23T07:03:39.077Z,13.43
2022-09-23T07:06:41.922Z,8.63
2022-09-23T07:09:45.427Z,8.80
2022-09-23T07:12:48.198Z,11.02
2022-09-23T07:16:02.151Z,12.55
2022-09-23T07:19:05.363Z,8.73
2022-09-23T07:22:07.945Z,9.20
2022-09-23T07:25:12.198Z,7.75
2022-09-23T07:28:14.659Z,6.68
2022-09-23T07:31:29.687Z,5.53
2022-09-23T07:34:37.307Z,10.45
2022-09-23T07:37:40.099Z,7.07
2022-09-23T07:40:42.696Z,5.53
2022-09-23T07:43:46.964Z,6.65
2022-09-23T07:46:50.900Z,9.57
2022-09-23T07:49:54.144Z,7.00
2022-09-23T07:52:56.766Z,11.32
2022-09-23T07:55:59.709Z,9.35
2022-09-23T07:59:05.531Z,4.72
2022-09-23T08:02:09.750Z,7.18
2022-09-23T08:05:12.549Z,5.35
2022-09-23T08:08:16.019Z,3.67
2022-09-23T08:11:19.172Z,4.62
2022-09-23T08:14:24.961Z,5.15
2022-09-23T08:17:27.813Z,3.33
2022-09-23T08:20:47.351Z,5.18
2022-09-23T08:23:51.736Z,7.07
2022-09-23T08:26:55.836Z,7.07
2022-09-23T08:29:58.593Z,5.65
2022-09-23T08:33:01.070Z,23.58
2022-09-23T08:36:04.079Z,3.78
2022-09-23T08:39:06.864Z,4.20
2022-09-23T08:42:27.616Z,4.37
2022-09-23T08:45:30.743Z,3.95
2022-09-23T08:48:52.529Z,3.72
2022-09-23T08:51:56.086Z,4.50
2022-09-23T08:55:01.170Z,5.47
2022-09-23T08:58:35.212Z,6.10
2022-09-23T09:01:44.431Z,4.28
2022-09-23T09:04:58.079Z,9.63
2022-09-23T09:08:03.752Z,3.95
2022-09-23T09:11:07.078Z,7.37
2022-09-23T09:14:30.088Z,6.47
2022-09-23T09:17:38.869Z,5.65
2022-09-23T09:21:08.540Z,7.93
2022-09-23T09:24:33.671Z,5.28
2022-09-23T09:27:40.733Z,7.45
2022-09-23T09:30:48.385Z,6.57
2022-09-23T09:33:59.347Z,5.65
2022-09-23T09:37:18.812Z,5.78
2022-09-23T09:40:21.763Z,4.78
2022-09-23T09:43:24.618Z,5.37
2022-09-23T09:46:50.511Z,6.93
2022-09-23T09:50:05.678Z,4.90
2022-09-23T09:53:28.214Z,5.90
2022-09-23T09:56:36.262Z,4.37
2022-09-23T09:59:44.154Z,6.53
2022-09-23T10:03:14.486Z,6.60
2022-09-23T10:06:24.426Z,7.70
2022-09-23T10:09:34.194Z,6.05
2022-09-23T10:18:55.771Z,6.12
2022-09-23T10:22:09.165Z,5.10
2022-09-23T10:25:26.746Z,4.80
2022-09-23T10:28:44.085Z,4.72
2022-09-23T10:31:46.886Z,5.22
2022-09-23T10:34:53.223Z,6.97
2022-09-23T10:38:02.296Z,5.53
2022-09-23T10:41:30.439Z,5.20
2022-09-23T10:45:26.496Z,6.65
2022-09-23T10:49:10.036Z,9.02
2022-09-23T10:52:22.384Z,6.93
2022-09-23T10:55:40.651Z,6.60
2022-09-23T10:59:12.606Z,5.78
2022-09-23T11:02:23.795Z,5.03
2022-09-23T11:05:36.443Z,5.43
2022-09-23T11:09:03.047Z,5.03
2022-09-23T11:12:14.865Z,3.33
2022-09-23T11:15:49.408Z,5.80
2022-09-23T11:19:26.755Z,3.92
2022-09-23T11:22:53.854Z,6.20
2022-09-23T11:26:19.026Z,3.97
2022-09-23T11:29:22.302Z,4.65
2022-09-23T11:32:31.560Z,4.15
2022-09-23T11:35:41.650Z,3.50
2022-09-23T11:38:48.884Z,4.78
2022-09-23T11:41:59.835Z,4.93
2022-09-23T11:45:13.019Z,7.35
2022-09-23T11:48:23.957Z,5.10
2022-09-23T11:51:32.026Z,4.97
2022-09-23T11:54:40.131Z,1.95
2022-09-23T11:57:49.516Z,3.25
2022-09-23T12:01:01.208Z,2.72
2022-09-23T12:04:19.580Z,2.35
2022-09-23T12:07:29.089Z,2.40
2022-09-23T12:11:00.572Z,3.87
2022-09-23T12:14:29.443Z,3.83
2022-09-23T12:17:37.990Z,4.85
2022-09-23T12:20:43.456Z,3.43
2022-09-23T12:24:07.672Z,4.07
2022-09-23T12:27:24.515Z,3.42
2022-09-23T12:30:32.201Z,3.17
2022-09-23T12:33:40.065Z,3.12
2022-09-23T12:36:49.492Z,4.75
2022-09-23T12:39:52.766Z,3.45
2022-09-23T12:42:56.247Z,3.67
2022-09-23T12:46:20.214Z,4.65
2022-09-23T12:49:25.261Z,3.83
2022-09-23T12:52:33.603Z,2.53
2022-09-23T12:55:36.353Z,4.47
2022-09-23T12:58:42.677Z,3.85
2022-09-23T13:01:45.804Z,2.80
2022-09-23T13:05:27.644Z,2.58
2022-09-23T13:08:34.077Z,2.85
2022-09-23T13:11:40.382Z,2.15
2022-09-23T13:14:46.545Z,2.03
2022-09-23T13:17:49.056Z,2.55
2022-09-23T13:20:54.932Z,4.37
2022-09-23T13:24:18.677Z,2.50
2022-09-23T13:27:31.004Z,2.97
2022-09-23T13:30:34.635Z,2.70
2022-09-23T13:33:46.809Z,2.78
2022-09-23T13:36:49.445Z,3.12
2022-09-23T13:39:52.104Z,3.17
2022-09-23T13:43:01.244Z,3.17
2022-09-23T13:46:10.318Z,5.50
2022-09-23T13:49:24.680Z,10.53
2022-09-23T13:52:31.802Z,4.70
2022-09-23T13:55:39.250Z,7.90
2022-09-23T13:58:45.088Z,3.25
2022-09-23T14:02:09.743Z,4.12
2022-09-23T14:05:24.230Z,5.18
2022-09-23T14:08:28.314Z,5.10
2022-09-23T14:11:35.162Z,3.37
2022-09-23T14:14:40.861Z,5.75
2022-09-23T14:17:49.530Z,3.35
2022-09-23T14:20:51.930Z,14.73
2022-09-23T14:23:55.574Z,7.30
2022-09-23T14:27:12.063Z,5.47
2022-09-23T14:30:18.560Z,6.80
2022-09-23T14:33:39.258Z,2.92
2022-09-23T14:37:01.564Z,3.58
2022-09-23T14:40:10.953Z,4.62
2022-09-23T14:43:23.273Z,3.70
2022-09-23T14:46:31.385Z,7.57
2022-09-23T14:49:34.187Z,3.75
2022-09-23T14:52:36.661Z,4.72
2022-09-23T14:55:41.494Z,4.12
2022-09-23T14:58:51.905Z,6.82
2022-09-23T15:01:54.984Z,3.28
2022-09-23T15:05:18.260Z,6.10
2022-09-23T15:08:23.610Z,4.97
2022-09-23T15:11:26.343Z,3.55
2022-09-23T15:14:39.751Z,3.15
2022-09-23T15:17:44.196Z,6.85
2022-09-23T15:20:52.325Z,4.95
2022-09-23T15:23:57.554Z,5.78
2022-09-23T15:27:00.424Z,3.33
2022-09-23T15:30:17.385Z,5.20
2022-09-23T15:33:25.048Z,4.55
2022-09-23T15:36:28.769Z,3.25
2022-09-23T15:39:36.236Z,4.95
2022-09-23T15:42:39.725Z,2.85
2022-09-23T15:46:04.690Z,7.20
2022-09-23T15:49:16.107Z,6.28
2022-09-23T15:52:22.718Z,7.07
2022-09-23T15:55:25.352Z,9.20
2022-09-23T15:58:28.171Z,3.45
2022-09-23T16:01:33.225Z,5.35
2022-09-23T16:04:36.244Z,6.03
2022-09-23T16:07:38.700Z,3.40
2022-09-23T16:10:42.910Z,10.57
2022-09-23T16:13:45.660Z,6.07
2022-09-23T16:16:48.557Z,3.05
2022-09-23T16:19:50.974Z,3.47
2022-09-23T16:22:57.822Z,3.50
2022-09-23T16:26:13.888Z,3.72
2022-09-23T16:29:16.874Z,3.25
2022-09-23T16:32:22.248Z,4.40
2022-09-23T16:35:27.926Z,4.25
2022-09-23T16:38:31.967Z,5.28
2022-09-23T16:41:35.018Z,3.70
2022-09-23T16:44:41.486Z,7.15
2022-09-23T16:47:46.452Z,3.35
2022-09-23T16:50:48.922Z,5.82
2022-09-23T16:53:51.973Z,5.55
2022-09-23T16:56:55.152Z,4.22
2022-09-23T17:00:16.704Z,5.93
2022-09-23T17:03:37.918Z,5.45
2022-09-23T17:06:44.555Z,9.18
2022-09-23T17:09:46.965Z,14.05
2022-09-23T17:12:50.587Z,9.63
2022-09-23T17:15:54.011Z,5.45
2022-09-23T17:18:57.371Z,10.38
2022-09-23T17:22:00.001Z,13.18
2022-09-23T17:25:03.814Z,10.30
2022-09-23T17:28:06.342Z,9.35
2022-09-23T17:31:09.691Z,8.18
2022-09-23T17:34:12.232Z,9.93
2022-09-23T17:37:15.126Z,9.02
2022-09-23T17:40:18.015Z,11.50
2022-09-23T17:43:25.060Z,12.13
2022-09-23T17:46:30.058Z,8.63
2022-09-23T17:49:35.215Z,7.45
2022-09-23T17:52:37.809Z,10.65
2022-09-23T17:55:40.940Z,13.18
2022-09-23T17:58:44.683Z,12.95
2022-09-23T18:01:47.452Z,11.52
2022-09-23T18:04:50.227Z,8.93
2022-09-23T18:07:52.613Z,10.25
2022-09-23T18:10:55.425Z,13.30
2022-09-23T18:14:04.111Z,15.27
2022-09-23T18:17:06.824Z,12.77
2022-09-23T18:20:09.913Z,11.20
2022-09-23T18:23:12.672Z,15.52
2022-09-23T18:26:16.750Z,11.90
2022-09-23T18:29:19.727Z,10.50
2022-09-23T18:32:22.197Z,12.00
2022-09-23T18:35:25.477Z,11.30
2022-09-23T18:38:28.156Z,10.98
2022-09-23T18:41:31.461Z,12.90
2022-09-23T18:44:33.901Z,11.80
2022-09-23T18:47:55.331Z,10.93
2022-09-23T18:50:57.839Z,10.55
2022-09-23T18:54:02.849Z,9.02
2022-09-23T18:57:05.323Z,11.95
2022-09-23T19:00:09.802Z,10.13
2022-09-23T19:03:12.232Z,12.48
2022-09-23T19:06:21.149Z,11.10
2022-09-23T19:09:24.168Z,9.20
2022-09-23T19:12:27.171Z,9.18
2022-09-23T19:15:29.676Z,8.88
2022-09-23T19:18:33.772Z,11.45
2022-09-23T19:21:37.021Z,8.93
2022-09-23T19:24:39.849Z,14.87
2022-09-23T19:27:42.395Z,12.88
2022-09-23T19:30:45.309Z,9.90
2022-09-23T19:33:58.425Z,13.52
2022-09-23T19:37:04.523Z,14.87
2022-09-23T19:40:07.938Z,12.50
2022-09-23T19:43:10.785Z,12.18
2022-09-23T19:46:13.495Z,13.95
2022-09-23T19:49:19.823Z,16.20
2022-09-23T19:52:22.797Z,13.75
2022-09-23T19:55:25.585Z,14.87
2022-09-23T19:58:28.038Z,16.65
2022-09-23T20:01:31.989Z,13.77
2022-09-23T20:04:36.111Z,13.82
2022-09-23T20:07:41.076Z,13.32
2022-09-23T20:10:44.360Z,14.95
2022-09-23T20:13:48.144Z,14.65
2022-09-23T20:16:51.939Z,14.60
2022-09-23T20:19:54.334Z,14.13
2022-09-23T20:22:56.943Z,14.52
2022-09-23T20:26:19.734Z,21.48
2022-09-23T20:29:22.499Z,14.02
2022-09-23T20:32:25.198Z,17.23
2022-09-23T20:35:33.124Z,11.48
2022-09-23T20:38:36.623Z,15.23
2022-09-23T20:41:39.708Z,13.90
2022-09-23T20:44:43.417Z,18.60
2022-09-23T20:47:46.225Z,21.35
2022-09-23T20:50:51.220Z,15.02
2022-09-23T20:53:54.046Z,17.70
2022-09-23T20:56:57.119Z,14.25
2022-09-23T20:59:59.907Z,15.63
2022-09-23T21:03:02.658Z,15.95
2022-09-23T21:06:06.816Z,16.83
2022-09-23T21:09:09.254Z,14.38
2022-09-23T21:12:11.930Z,16.90
2022-09-23T21:15:14.359Z,17.20
2022-09-23T21:18:23.228Z,15.45
2022-09-23T21:21:26.021Z,16.42
2022-09-23T21:25:12.137Z,18.73
2022-09-23T21:27:54.111Z,18.23
2022-09-23T21:31:05.746Z,21.73
2022-09-23T21:34:11.190Z,17.45
2022-09-23T21:37:14.073Z,16.85
2022-09-23T21:40:35.071Z,19.75
2022-09-23T21:43:40.429Z,17.60
2022-09-23T21:46:43.329Z,16.30
2022-09-23T21:49:50.610Z,17.98
2022-09-23T21:52:53.488Z,18.37
2022-09-23T21:56:07.002Z,18.83
2022-09-23T21:59:10.052Z,18.10
2022-09-23T22:02:12.719Z,15.48
2022-09-23T22:05:15.457Z,16.73
2022-09-23T22:08:17.822Z,15.10
2022-09-23T22:11:41.058Z,20.00
2022-09-23T22:14:43.607Z,15.75
2022-09-23T22:17:48.078Z,18.30
2022-09-23T22:20:50.742Z,14.32
2022-09-23T22:23:54.887Z,15.90
2022-09-23T22:26:57.330Z,16.90
2022-09-23T22:30:18.828Z,17.83
2022-09-23T22:33:22.023Z,16.27
2022-09-23T22:36:24.886Z,15.85
2022-09-23T22:39:29.738Z,17.58
2022-09-23T22:42:37.849Z,15.48
2022-09-23T22:45:49.548Z,14.65
2022-09-23T22:48:53.244Z,18.20
2022-09-23T22:51:55.819Z,18.17
2022-09-23T22:54:58.593Z,15.95
2022-09-23T22:58:15.359Z,14.30
2022-09-23T23:01:23.791Z,16.30
2022-09-23T23:04:27.006Z,16.60
2022-09-23T23:07:29.754Z,16.40
2022-09-23T23:10:32.565Z,13.70
2022-09-23T23:13:35.667Z,17.35
2022-09-23T23:16:38.990Z,15.95
2022-09-23T23:19:41.753Z,16.00
2022-09-23T23:22:44.247Z,18.62
2022-09-23T23:25:46.969Z,21.70
2022-09-23T23:28:51.583Z,14.40
2022-09-23T23:31:54.430Z,16.55
2022-09-23T23:34:56.965Z,16.20
2022-09-23T23:37:59.703Z,15.13
2022-09-23T23:41:03.223Z,16.95
2022-09-23T23:44:07.049Z,16.85
2022-09-23T23:47:09.518Z,13.30
2022-09-23T23:50:12.270Z,17.25
2022-09-23T23:53:14.722Z,15.82
2022-09-23T23:56:20.548Z,15.63
2022-09-23T23:59:23.066Z,15.80
